Time;durP1;ratioP1;P1;durP2;ratioP2;P2;SDS_P1;SDS_P2;PMS_P1;PMS_P2;Temp;Humidity;BMP_temperature;BMP_pressure;BME280_temperature;BME280_humidity;BME280_pressure;Samples;Min_cycle;Max_cycle;Signal;HPM_P1;HPM_P2
2023/12/23 00:00:27;;;;;;;1.08;0.38;;;;;;;5.62;100.00;92619.34;2090158;28;20489;-80
2023/12/23 00:01:28;;;;;;;0.20;0.20;;;;;;;5.75;100.00;92627.50;2088967;28;20408;-79
2023/12/23 00:02:29;;;;;;;0.40;0.30;;;;;;;5.50;100.00;92625.16;2098039;28;20032;-80
2023/12/23 00:03:30;;;;;;;0.28;0.28;;;;;;;5.44;100.00;92619.50;2094742;28;20024;-79
2023/12/23 00:04:35;;;;;;;0.20;0.20;;;;;;;5.73;100.00;92619.97;2098313;28;20428;-79
2023/12/23 00:05:36;;;;;;;0.25;0.20;;;;;;;5.58;100.00;92618.63;2098359;28;20032;-78
2023/12/23 00:06:37;;;;;;;0.30;0.30;;;;;;;5.63;100.00;92617.44;2089501;28;20032;-80
2023/12/23 00:07:41;;;;;;;0.25;0.25;;;;;;;5.62;100.00;92631.81;2090049;28;20460;-79
2023/12/23 00:08:41;;;;;;;0.32;0.20;;;;;;;5.73;100.00;92621.84;2082154;28;20029;-79
2023/12/23 00:09:50;;;;;;;0.20;0.20;;;;;;;5.58;100.00;92620.53;2098251;28;20040;-82
2023/12/23 00:10:51;;;;;;;0.20;0.20;;;;;;;5.72;100.00;92625.66;2098479;28;20074;-78
2023/12/23 00:11:52;;;;;;;0.20;0.20;;;;;;;5.75;100.00;92627.50;2079565;28;20123;-78
2023/12/23 00:13:13;;;;;;;1.27;0.30;;;;;;;5.87;100.00;92623.59;2087417;28;20114;-79
2023/12/23 00:14:33;;;;;;;0.20;0.20;;;;;;;5.81;100.00;92633.88;2095413;28;20689;-78
2023/12/23 00:15:53;;;;;;;0.20;0.20;;;;;;;5.79;100.00;92642.25;2091586;28;20032;-79
2023/12/23 00:16:54;;;;;;;0.20;0.20;;;;;;;5.79;100.00;92649.44;2098186;28;20036;-78
2023/12/23 00:17:56;;;;;;;0.20;0.20;;;;;;;5.71;100.00;92646.13;2090129;28;20095;-77
2023/12/23 00:18:56;;;;;;;0.63;0.20;;;;;;;5.86;100.00;92648.63;2081081;28;20686;-78
2023/12/23 00:19:57;;;;;;;0.63;0.30;;;;;;;5.74;100.00;92642.66;2090043;28;20039;-82
2023/12/23 00:20:58;;;;;;;0.28;0.28;;;;;;;5.59;100.00;92633.38;2098045;28;20029;-77
2023/12/23 00:21:59;;;;;;;0.20;0.20;;;;;;;5.50;100.00;92651.66;2089925;28;20091;-76
2023/12/23 00:23:00;;;;;;;0.20;0.20;;;;;;;5.54;100.00;92641.78;2089759;28;20386;-78
2023/12/23 00:24:01;;;;;;;1.17;0.30;;;;;;;5.84;100.00;92643.72;2089902;28;20029;-78
2023/12/23 00:25:02;;;;;;;0.20;0.20;;;;;;;5.70;100.00;92646.50;2094696;28;20040;-78
2023/12/23 00:26:04;;;;;;;0.20;0.20;;;;;;;5.53;100.00;92656.16;2098033;28;20032;-77
2023/12/23 00:27:05;;;;;;;0.30;0.30;;;;;;;5.64;100.00;92640.16;2089810;28;20120;-80
2023/12/23 00:28:06;;;;;;;0.20;0.20;;;;;;;5.88;100.00;92660.31;2090028;28;20044;-78
2023/12/23 00:29:07;;;;;;;0.25;0.20;;;;;;;5.68;100.00;92640.88;2081832;28;20021;-80
2023/12/23 00:30:09;;;;;;;0.20;0.20;;;;;;;5.55;100.00;92653.88;2091889;28;20020;-79
2023/12/23 00:31:10;;;;;;;0.28;0.28;;;;;;;5.50;100.00;92668.31;2092553;28;20444;-79
2023/12/23 00:32:11;;;;;;;0.20;0.20;;;;;;;5.56;100.00;92669.38;2081296;28;20029;-79
2023/12/23 00:33:12;;;;;;;0.10;0.10;;;;;;;5.52;100.00;92663.34;2098103;28;20025;-80
2023/12/23 00:34:13;;;;;;;0.45;0.20;;;;;;;5.62;100.00;92669.72;2107099;28;20019;-79
2023/12/23 00:35:14;;;;;;;0.50;0.30;;;;;;;5.55;100.00;92667.13;2106788;28;20047;-79
2023/12/23 00:36:15;;;;;;;0.20;0.20;;;;;;;5.52;100.00;92659.94;2106881;28;20403;-81
2023/12/23 00:37:20;;;;;;;0.47;0.20;;;;;;;5.64;100.00;92662.09;2098607;28;20037;-79
2023/12/23 00:38:21;;;;;;;0.60;0.22;;;;;;;5.48;100.00;92665.28;2102493;28;20465;-83
2023/12/23 00:39:23;;;;;;;0.47;0.30;;;;;;;5.54;100.00;92662.97;2106401;28;20115;-77
2023/12/23 00:40:24;;;;;;;0.30;0.30;;;;;;;5.70;100.00;92644.59;2089910;28;20032;-79
2023/12/23 00:41:25;;;;;;;0.20;0.20;;;;;;;5.85;100.00;92652.41;2083089;28;20032;-79
2023/12/23 00:42:26;;;;;;;0.20;0.20;;;;;;;5.56;100.00;92652.72;2091453;28;20021;-80
2023/12/23 00:43:27;;;;;;;0.20;0.20;;;;;;;5.62;100.00;92666.28;2105796;28;20447;-78
2023/12/23 00:44:28;;;;;;;0.28;0.20;;;;;;;5.55;100.00;92645.91;2107024;28;20384;-80
2023/12/23 00:45:29;;;;;;;0.25;0.25;;;;;;;5.54;100.00;92674.31;2097831;28;20040;-78
2023/12/23 00:46:30;;;;;;;1.10;0.20;;;;;;;5.51;100.00;92642.56;2081219;28;20037;-80
2023/12/23 00:47:30;;;;;;;0.20;0.20;;;;;;;5.48;100.00;92657.34;2089702;28;20074;-80
2023/12/23 00:48:31;;;;;;;0.20;0.20;;;;;;;5.49;100.00;92658.84;2084247;28;20437;-80
2023/12/23 00:49:32;;;;;;;0.75;0.40;;;;;;;5.47;100.00;92660.38;2089663;28;20056;-82
2023/12/23 00:50:34;;;;;;;0.30;0.30;;;;;;;5.53;100.00;92656.16;2106290;28;20031;-81
2023/12/23 00:51:35;;;;;;;0.30;0.30;;;;;;;5.54;100.00;92660.31;2097864;28;20063;-80
2023/12/23 00:52:38;;;;;;;0.30;0.30;;;;;;;5.50;100.00;92651.66;2097920;28;20020;-79
2023/12/23 00:53:39;;;;;;;0.25;0.25;;;;;;;5.47;100.00;92668.34;2106426;28;20044;-78
2023/12/23 00:54:40;;;;;;;0.98;0.30;;;;;;;5.27;100.00;92673.47;2097656;28;20044;-78
2023/12/23 00:55:41;;;;;;;1.85;0.40;;;;;;;5.35;100.00;92661.63;2106307;28;20030;-79
2023/12/23 00:56:42;;;;;;;0.32;0.32;;;;;;;5.29;100.00;92663.97;2106147;28;20028;-81
2023/12/23 00:57:43;;;;;;;0.65;0.30;;;;;;;5.33;100.00;92658.63;2106295;28;20031;-76
2023/12/23 00:58:44;;;;;;;0.80;0.30;;;;;;;5.37;100.00;92669.94;2106241;28;20063;-78
2023/12/23 00:59:45;;;;;;;0.30;0.25;;;;;;;5.50;100.00;92663.00;2089741;28;20377;-77
2023/12/23 01:00:46;;;;;;;0.47;0.40;;;;;;;5.49;100.00;92674.75;2089089;28;20433;-79
2023/12/23 01:01:47;;;;;;;0.47;0.30;;;;;;;5.43;100.00;92678.97;2097993;28;20385;-78
2023/12/23 01:02:48;;;;;;;2.20;0.40;;;;;;;5.46;100.00;92688.03;2091316;28;20032;-78
2023/12/23 01:03:49;;;;;;;0.20;0.20;;;;;;;5.54;100.00;92676.22;2099915;28;20028;-80
2023/12/23 01:04:50;;;;;;;0.57;0.30;;;;;;;5.55;100.00;92683.03;2105999;28;20031;-80
2023/12/23 01:05:50;;;;;;;0.65;0.35;;;;;;;5.52;100.00;92676.59;2106426;28;20382;-80
2023/12/23 01:06:51;;;;;;;3.10;0.35;;;;;;;5.51;100.00;92684.97;2105280;28;20023;-80
2023/12/23 01:07:52;;;;;;;1.17;0.40;;;;;;;5.56;100.00;92684.53;2097956;28;20032;-81
2023/12/23 01:08:53;;;;;;;0.52;0.20;;;;;;;5.40;100.00;92687.72;2097625;28;20040;-82
2023/12/23 01:09:54;;;;;;;0.25;0.20;;;;;;;5.42;100.00;92674.81;2106130;28;20024;-80
2023/12/23 01:10:55;;;;;;;0.20;0.20;;;;;;;5.36;100.00;92692.31;2089526;28;20029;-80
2023/12/23 01:11:56;;;;;;;0.28;0.28;;;;;;;5.46;100.00;92680.09;2088784;28;20017;-78
2023/12/23 01:13:05;;;;;;;0.25;0.20;;;;;;;5.59;100.00;92689.06;2088764;28;20029;-78
2023/12/23 01:14:06;;;;;;;0.63;0.20;;;;;;;5.50;100.00;92686.88;2090875;28;20025;-80
2023/12/23 01:15:07;;;;;;;0.30;0.30;;;;;;;5.46;100.00;92694.09;2091706;28;20182;-79
2023/12/23 01:16:08;;;;;;;0.32;0.20;;;;;;;5.51;100.00;92690.25;2106091;28;20448;-81
2023/12/23 01:17:09;;;;;;;0.28;0.20;;;;;;;5.59;100.00;92702.31;2105121;28;20020;-79
2023/12/23 01:18:10;;;;;;;0.30;0.25;;;;;;;5.65;100.00;92713.97;2106022;28;20051;-80
2023/12/23 01:19:11;;;;;;;1.08;1.05;;;;;;;5.60;100.00;92700.41;2097096;28;20404;-80
2023/12/23 01:20:12;;;;;;;0.20;0.20;;;;;;;5.49;100.00;92690.66;2097681;28;20139;-79
2023/12/23 01:21:14;;;;;;;0.20;0.20;;;;;;;5.55;100.00;92699.69;2097680;28;20017;-80
2023/12/23 01:22:15;;;;;;;1.55;0.95;;;;;;;5.65;100.00;92703.38;2097935;28;20556;-81
2023/12/23 01:23:16;;;;;;;0.85;0.30;;;;;;;5.53;100.00;92701.22;2106157;28;20012;-81
2023/12/23 01:24:17;;;;;;;1.75;0.30;;;;;;;5.38;100.00;92702.50;2106186;28;20067;-79
2023/12/23 01:25:18;;;;;;;0.20;0.20;;;;;;;5.49;100.00;92703.16;2105769;28;20175;-78
2023/12/23 01:26:19;;;;;;;0.20;0.20;;;;;;;5.45;100.00;92705.84;2093767;28;20139;-79
2023/12/23 01:27:20;;;;;;;0.55;0.40;;;;;;;5.48;100.00;92707.69;2081208;28;20029;-80
2023/12/23 01:28:21;;;;;;;0.30;0.30;;;;;;;5.65;100.00;92718.53;2097551;28;20026;-79
2023/12/23 01:29:22;;;;;;;0.20;0.20;;;;;;;5.76;100.00;92705.94;2102331;28;20024;-79
2023/12/23 01:30:23;;;;;;;0.63;0.20;;;;;;;5.82;100.00;92720.25;2105880;28;20042;-80
2023/12/23 01:31:24;;;;;;;0.20;0.20;;;;;;;5.65;100.00;92718.53;2085965;28;20432;-81
2023/12/23 01:32:25;;;;;;;0.32;0.30;;;;;;;5.69;100.00;92721.91;2088842;28;20013;-81
2023/12/23 01:33:34;;;;;;;1.75;0.30;;;;;;;5.63;100.00;92726.13;2081035;28;20025;-80
2023/12/23 01:34:35;;;;;;;0.20;0.20;;;;;;;5.60;100.00;92725.00;2086679;28;20027;-81
2023/12/23 01:35:39;;;;;;;0.30;0.20;;;;;;;5.80;100.00;92728.63;2095859;28;20024;-81
2023/12/23 01:36:40;;;;;;;0.65;0.20;;;;;;;5.67;100.00;92724.22;2106015;28;20024;-79
2023/12/23 01:37:41;;;;;;;0.20;0.20;;;;;;;5.57;100.00;92720.50;2105843;28;20630;-81
2023/12/23 01:38:41;;;;;;;0.30;0.30;;;;;;;5.80;100.00;92725.97;2103655;28;20032;-80
2023/12/23 01:39:42;;;;;;;0.28;0.28;;;;;;;5.81;100.00;92732.00;2093184;28;20077;-80
2023/12/23 01:40:43;;;;;;;0.93;0.20;;;;;;;5.74;100.00;92730.19;2087439;28;20029;-77
2023/12/23 01:41:44;;;;;;;0.20;0.20;;;;;;;5.77;100.00;92729.41;2089381;28;20099;-79
2023/12/23 01:42:45;;;;;;;0.20;0.20;;;;;;;5.84;100.00;92727.81;2088434;28;20025;-78
2023/12/23 01:43:46;;;;;;;0.28;0.22;;;;;;;5.79;100.00;92735.06;2097692;28;20035;-80
2023/12/23 01:44:47;;;;;;;0.20;0.20;;;;;;;5.86;100.00;92747.50;2097532;28;20021;-78
2023/12/23 01:45:48;;;;;;;0.30;0.30;;;;;;;5.80;100.00;92738.47;2086749;28;20033;-79
2023/12/23 01:46:52;;;;;;;0.30;0.30;;;;;;;5.66;100.00;92744.63;2096071;28;20115;-80
2023/12/23 01:47:55;;;;;;;0.43;0.28;;;;;;;5.56;100.00;92734.91;2089613;28;20029;-78
2023/12/23 01:48:56;;;;;;;0.30;0.30;;;;;;;5.68;100.00;92747.66;2097631;28;20688;-78
2023/12/23 01:49:57;;;;;;;0.38;0.20;;;;;;;5.71;100.00;92751.44;2104708;28;20027;-78
2023/12/23 01:50:58;;;;;;;0.55;0.30;;;;;;;5.70;100.00;92761.28;2097230;28;20062;-79
2023/12/23 01:52:00;;;;;;;0.30;0.30;;;;;;;5.49;100.00;92743.69;2089101;28;20033;-82
2023/12/23 01:53:01;;;;;;;0.20;0.20;;;;;;;5.46;100.00;92751.66;2089698;28;20085;-79
2023/12/23 01:54:09;;;;;;;0.85;0.30;;;;;;;5.70;100.00;92744.63;2097751;28;20032;-77
2023/12/23 01:55:11;;;;;;;1.33;0.30;;;;;;;5.60;100.00;92742.81;2105450;28;20020;-79
2023/12/23 01:56:12;;;;;;;0.20;0.20;;;;;;;5.36;100.00;92741.91;2105729;28;20558;-79
2023/12/23 01:57:13;;;;;;;0.30;0.30;;;;;;;5.43;100.00;92747.13;2089259;28;20048;-81
2023/12/23 01:58:14;;;;;;;0.57;0.30;;;;;;;5.43;100.00;92737.28;2089329;28;20017;-77
2023/12/23 01:59:17;;;;;;;0.88;0.88;;;;;;;5.60;100.00;92745.47;2097489;28;20076;-80
2023/12/23 02:00:18;;;;;;;0.20;0.20;;;;;;;5.58;100.00;92743.22;2102396;28;20024;-80
2023/12/23 02:01:18;;;;;;;0.30;0.30;;;;;;;5.54;100.00;92740.59;2102342;28;20063;-79
2023/12/23 02:02:20;;;;;;;0.30;0.30;;;;;;;5.44;100.00;92738.03;2097313;28;20024;-77
2023/12/23 02:03:21;;;;;;;0.75;0.20;;;;;;;5.64;100.00;92740.91;2105574;28;20027;-80
2023/12/23 02:04:23;;;;;;;0.20;0.20;;;;;;;5.46;100.00;92735.75;2097354;28;20032;-78
2023/12/23 02:05:24;;;;;;;0.25;0.25;;;;;;;5.35;100.00;92737.72;2089337;28;20393;-78
2023/12/23 02:06:26;;;;;;;0.28;0.28;;;;;;;5.47;100.00;92737.25;2100848;28;20028;-78
2023/12/23 02:07:27;;;;;;;0.20;0.20;;;;;;;5.54;100.00;92727.34;2096747;28;20159;-79
2023/12/23 02:08:28;;;;;;;0.20;0.20;;;;;;;5.51;100.00;92728.13;2089251;28;20051;-79
2023/12/23 02:09:29;;;;;;;0.13;0.13;;;;;;;5.40;100.00;92750.56;2089645;28;21078;-78
2023/12/23 02:10:30;;;;;;;0.38;0.20;;;;;;;5.40;100.00;92732.00;2097452;28;20024;-80
2023/12/23 02:11:45;;;;;;;0.80;0.20;;;;;;;5.54;100.00;92732.66;2105553;28;20059;-78
2023/12/23 02:13:02;;;;;;;0.20;0.20;;;;;;;5.65;100.00;92729.88;2098590;28;20075;-80
2023/12/23 02:14:20;;;;;;;0.20;0.20;;;;;;;5.59;100.00;92725.41;2097758;28;20079;-80
2023/12/23 02:15:23;;;;;;;0.30;0.30;;;;;;;5.44;100.00;92738.03;2090706;28;20112;-78
2023/12/23 02:16:24;;;;;;;0.20;0.20;;;;;;;5.46;100.00;92741.81;2097368;28;20059;-79
2023/12/23 02:17:25;;;;;;;0.20;0.20;;;;;;;5.38;100.00;92740.34;2105484;28;20028;-77
2023/12/23 02:18:26;;;;;;;0.28;0.17;;;;;;;5.47;100.00;92737.25;2105746;28;20492;-79
2023/12/23 02:19:27;;;;;;;1.38;0.20;;;;;;;5.47;100.00;92742.56;2087742;28;20040;-80
2023/12/23 02:20:28;;;;;;;0.30;0.30;;;;;;;5.54;100.00;92753.84;2091640;28;20025;-80
2023/12/23 02:21:29;;;;;;;0.43;0.32;;;;;;;5.55;100.00;92750.06;2106365;28;20043;-77
2023/12/23 02:22:30;;;;;;;0.20;0.20;;;;;;;5.59;100.00;92752.69;2105701;28;20050;-78
2023/12/23 02:25:11;;;;;;;0.30;0.30;;;;;;;4.77;100.00;92753.28;2130557;27;20183;-84
2023/12/23 02:26:14;;;;;;;0.20;0.20;;;;;;;5.11;100.00;92756.09;2112857;28;20156;-84
2023/12/23 02:27:22;;;;;;;0.30;0.30;;;;;;;5.26;100.00;92765.41;2096671;28;20707;-82
2023/12/23 02:28:24;;;;;;;0.52;0.30;;;;;;;5.37;100.00;92761.97;2097135;28;20461;-86
2023/12/23 02:29:27;;;;;;;0.40;0.35;;;;;;;5.30;100.00;92765.41;2088262;28;20382;-85
2023/12/23 02:30:29;;;;;;;0.30;0.30;;;;;;;5.25;100.00;92771.88;2088358;28;20490;-86
2023/12/23 02:31:32;;;;;;;0.30;0.30;;;;;;;5.27;100.00;92766.19;2101901;28;20496;-85
2023/12/23 02:32:33;;;;;;;0.20;0.20;;;;;;;5.44;100.00;92775.13;2100009;28;20032;-89
2023/12/23 02:33:34;;;;;;;0.20;0.20;;;;;;;5.51;100.00;92767.88;2104474;28;20047;-86
2023/12/23 02:34:35;;;;;;;1.30;0.22;;;;;;;5.27;100.00;92782.09;2103993;28;20031;-81
2023/12/23 02:35:36;;;;;;;0.30;0.30;;;;;;;5.05;100.00;92757.66;2096066;28;20020;-84
2023/12/23 02:36:38;;;;;;;0.30;0.30;;;;;;;5.18;100.00;92769.28;2104504;28;20028;-86
2023/12/23 02:37:41;;;;;;;0.65;0.32;;;;;;;5.42;100.00;92767.59;2096272;28;20067;-87
2023/12/23 02:38:42;;;;;;;0.20;0.20;;;;;;;5.49;100.00;92766.78;2105025;28;20017;-86
2023/12/23 02:39:43;;;;;;;1.38;0.20;;;;;;;5.43;100.00;92768.34;2104424;28;20029;-89
2023/12/23 02:40:44;;;;;;;0.30;0.30;;;;;;;5.30;100.00;92760.09;2092654;28;20111;-84
2023/12/23 02:41:45;;;;;;;0.43;0.30;;;;;;;5.42;100.00;92761.53;2094581;28;20132;-85
2023/12/23 02:42:46;;;;;;;0.68;0.30;;;;;;;5.36;100.00;92758.56;2108497;28;20031;-85
2023/12/23 02:43:47;;;;;;;0.50;0.20;;;;;;;5.32;100.00;92768.44;2104481;28;20020;-83
2023/12/23 02:44:48;;;;;;;0.38;0.30;;;;;;;5.46;100.00;92770.22;2095886;28;20417;-88
2023/12/23 02:45:49;;;;;;;0.28;0.28;;;;;;;5.30;100.00;92768.78;2095888;28;20055;-83
2023/12/23 02:46:51;;;;;;;0.20;0.20;;;;;;;5.24;100.00;92757.13;2102481;28;20031;-83
2023/12/23 02:47:51;;;;;;;3.13;0.40;;;;;;;5.25;100.00;92781.72;2104195;28;20532;-84
2023/12/23 02:48:52;;;;;;;1.33;0.57;;;;;;;5.17;100.00;92778.34;2087130;28;20033;-88
2023/12/23 02:49:53;;;;;;;0.22;0.22;;;;;;;5.30;100.00;92773.34;2103312;28;20024;-86
2023/12/23 02:50:54;;;;;;;0.55;0.35;;;;;;;5.43;100.00;92766.44;2098695;28;20563;-88
2023/12/23 02:51:55;;;;;;;0.38;0.22;;;;;;;5.30;100.00;92762.75;1998633;28;20173;-85
2023/12/23 02:52:56;;;;;;;0.30;0.30;;;;;;;5.22;100.00;92764.72;2003500;28;20122;-86
2023/12/23 02:53:57;;;;;;;0.25;0.25;;;;;;;5.38;100.00;92774.81;2011726;28;20066;-86
2023/12/23 02:54:58;;;;;;;0.20;0.20;;;;;;;5.37;100.00;92773.31;2021133;28;20043;-87
2023/12/23 02:55:59;;;;;;;0.52;0.40;;;;;;;5.45;100.00;92776.66;2028203;27;20039;-85
2023/12/23 02:57:00;;;;;;;0.20;0.20;;;;;;;5.49;100.00;92778.13;2023999;28;20043;-85
2023/12/23 02:58:01;;;;;;;2.17;0.30;;;;;;;5.41;100.00;92762.69;2065030;28;20043;-83
2023/12/23 02:59:02;;;;;;;0.30;0.30;;;;;;;5.60;100.00;92774.63;2084081;28;20108;-84
2023/12/23 03:00:04;;;;;;;0.20;0.20;;;;;;;5.35;100.00;92777.47;1995243;28;23038;-83
2023/12/23 03:01:08;;;;;;;0.28;0.20;;;;;;;5.23;100.00;92776.06;2000321;28;21451;-86
2023/12/23 03:02:09;;;;;;;0.32;0.30;;;;;;;5.20;100.00;92779.50;2007050;28;20182;-87
2023/12/23 03:03:10;;;;;;;1.67;0.30;;;;;;;5.16;100.00;92784.06;2012117;28;20036;-85
2023/12/23 03:04:11;;;;;;;0.65;0.30;;;;;;;5.21;100.00;92773.03;2013362;28;20114;-85
2023/12/23 03:05:11;;;;;;;0.85;0.30;;;;;;;5.04;100.00;92777.31;2018052;28;20033;-85
2023/12/23 03:06:14;;;;;;;0.40;0.28;;;;;;;5.17;100.00;92773.06;2022524;28;20020;-85
2023/12/23 03:07:15;;;;;;;0.20;0.20;;;;;;;5.41;100.00;92775.94;2023853;28;20982;-86
2023/12/23 03:08:16;;;;;;;0.28;0.28;;;;;;;5.60;100.00;92767.44;2039834;28;20089;-86
2023/12/23 03:09:16;;;;;;;0.30;0.30;;;;;;;5.35;100.00;92770.28;2051522;28;20024;-85
2023/12/23 03:10:17;;;;;;;0.35;0.22;;;;;;;5.48;100.00;92773.22;2055825;28;20093;-85
2023/12/23 03:11:21;;;;;;;0.30;0.30;;;;;;;5.55;100.00;92781.13;2054059;28;20036;-84
2023/12/23 03:12:21;;;;;;;0.63;0.30;;;;;;;5.47;100.00;92780.41;2072601;28;20078;-85
2023/12/23 03:13:22;;;;;;;0.30;0.30;;;;;;;5.62;100.00;92774.97;2079878;28;20608;-88
2023/12/23 03:14:23;;;;;;;0.90;0.20;;;;;;;5.46;100.00;92763.00;2082944;28;20020;-89
2023/12/23 03:15:24;;;;;;;0.43;0.28;;;;;;;5.46;100.00;92772.84;2077390;28;20033;-85
2023/12/23 03:16:29;;;;;;;0.20;0.20;;;;;;;5.49;100.00;92775.50;2093823;28;20059;-85
2023/12/23 03:17:30;;;;;;;0.85;0.30;;;;;;;5.58;100.00;92787.53;2105326;28;20043;-86
2023/12/23 03:18:34;;;;;;;0.20;0.20;;;;;;;5.66;100.00;92778.34;2103778;28;20031;-84
2023/12/23 03:19:35;;;;;;;0.20;0.20;;;;;;;5.77;100.00;92776.38;2107145;28;20489;-86
2023/12/23 03:20:36;;;;;;;0.20;0.20;;;;;;;5.63;100.00;92784.47;2087563;28;20124;-86
2023/12/23 03:21:44;;;;;;;0.20;0.20;;;;;;;5.39;100.00;92778.97;2087723;28;20113;-85
2023/12/23 03:22:45;;;;;;;0.20;0.20;;;;;;;5.38;100.00;92785.41;2096712;28;20085;-87
2023/12/23 03:23:46;;;;;;;0.38;0.30;;;;;;;5.60;100.00;92788.66;2087549;28;20054;-86
2023/12/23 03:24:47;;;;;;;0.40;0.22;;;;;;;5.74;100.00;92791.16;2095581;28;20115;-89
2023/12/23 03:25:49;;;;;;;0.20;0.20;;;;;;;5.62;100.00;92786.38;2095772;28;20036;-84
2023/12/23 03:26:50;;;;;;;0.22;0.22;;;;;;;5.59;100.00;92781.84;2079430;28;20040;-85
2023/12/23 03:27:50;;;;;;;0.20;0.20;;;;;;;5.41;100.00;92771.38;2079191;28;20060;-86
2023/12/23 03:28:51;;;;;;;0.20;0.20;;;;;;;5.26;100.00;92765.41;2079409;28;20047;-85
2023/12/23 03:29:52;;;;;;;0.22;0.20;;;;;;;5.28;100.00;92780.94;2075477;28;20142;-86
2023/12/23 03:30:53;;;;;;;0.20;0.20;;;;;;;5.32;100.00;92776.38;2073518;28;20025;-85
2023/12/23 03:31:54;;;;;;;0.20;0.20;;;;;;;5.32;100.00;92772.97;2087543;28;20036;-85
2023/12/23 03:32:55;;;;;;;0.20;0.20;;;;;;;5.44;100.00;92789.13;2087427;28;20029;-86
2023/12/23 03:33:56;;;;;;;0.20;0.20;;;;;;;5.20;100.00;92782.88;2074197;28;20037;-90
2023/12/23 03:34:57;;;;;;;0.20;0.20;;;;;;;5.30;100.00;92781.31;2087480;28;20098;-86
2023/12/23 03:35:58;;;;;;;1.48;0.30;;;;;;;5.27;100.00;92788.16;2091305;28;20033;-86
2023/12/23 03:36:59;;;;;;;0.80;0.20;;;;;;;5.21;100.00;92778.34;2090401;28;20040;-87
2023/12/23 03:38:00;;;;;;;0.10;0.10;;;;;;;5.20;100.00;92780.25;2103328;28;20428;-86
2023/12/23 03:39:01;;;;;;;0.43;0.20;;;;;;;5.14;100.00;92781.06;2081789;28;20494;-86
2023/12/23 03:40:03;;;;;;;0.13;0.10;;;;;;;5.10;100.00;92793.56;2075925;28;20030;-85
2023/12/23 03:41:05;;;;;;;0.17;0.17;;;;;;;5.11;100.00;92781.81;2087650;28;20056;-87
2023/12/23 03:42:06;;;;;;;0.20;0.20;;;;;;;5.14;100.00;92781.06;2081756;28;20512;-88
2023/12/23 03:43:07;;;;;;;0.80;0.20;;;;;;;5.06;100.00;92785.63;2068856;28;20022;-87
2023/12/23 03:44:08;;;;;;;0.30;0.30;;;;;;;5.12;100.00;92784.06;2071305;28;20075;-89
2023/12/23 03:45:09;;;;;;;0.38;0.20;;;;;;;5.12;100.00;92775.38;2081657;28;20091;-87
2023/12/23 03:46:10;;;;;;;0.80;0.20;;;;;;;5.19;100.00;92780.63;2074011;28;20021;-89
2023/12/23 03:47:11;;;;;;;0.20;0.20;;;;;;;5.16;100.00;92770.81;2080956;28;20059;-86
2023/12/23 03:48:12;;;;;;;0.80;0.20;;;;;;;5.35;100.00;92780.13;2082031;28;20026;-86
2023/12/23 03:49:13;;;;;;;0.20;0.20;;;;;;;5.28;100.00;92781.69;2082014;28;20116;-88
2023/12/23 03:50:14;;;;;;;0.30;0.20;;;;;;;5.14;100.00;92773.09;2081734;28;20427;-86
2023/12/23 03:51:15;;;;;;;0.20;0.20;;;;;;;5.01;100.00;92784.16;2081710;28;20072;-83
2023/12/23 03:52:16;;;;;;;0.10;0.10;;;;;;;5.08;100.00;92779.94;2081718;28;20029;-85
2023/12/23 03:53:17;;;;;;;0.20;0.20;;;;;;;5.23;100.00;92781.38;2080787;28;20733;-85
2023/12/23 03:54:18;;;;;;;1.13;0.30;;;;;;;5.36;100.00;92794.91;2088777;28;20028;-85
2023/12/23 03:55:18;;;;;;;0.32;0.20;;;;;;;5.15;100.00;92795.81;2096106;28;20047;-88
2023/12/23 03:56:19;;;;;;;0.20;0.20;;;;;;;4.92;100.00;92791.78;2003978;28;20037;-85
2023/12/23 03:57:20;;;;;;;0.20;0.20;;;;;;;4.86;100.00;92782.72;1991249;28;20059;-87
2023/12/23 03:58:21;;;;;;;0.20;0.20;;;;;;;4.92;100.00;92781.19;1984631;28;23206;-86
2023/12/23 03:59:22;;;;;;;1.27;0.20;;;;;;;4.84;100.00;92782.38;1989547;28;20066;-82
2023/12/23 04:00:23;;;;;;;0.70;0.20;;;;;;;4.96;100.00;92787.22;1994653;28;20115;-82
2023/12/23 04:01:24;;;;;;;0.10;0.10;;;;;;;4.91;100.00;92789.50;2025294;28;20096;-85
2023/12/23 04:02:25;;;;;;;0.20;0.20;;;;;;;4.77;100.00;92785.03;2072582;28;20827;-85
2023/12/23 04:03:26;;;;;;;0.10;0.10;;;;;;;4.80;100.00;92797.50;2022101;28;20032;-83
2023/12/23 04:04:27;;;;;;;0.63;0.20;;;;;;;4.75;100.00;92800.56;1968232;28;20029;-85
2023/12/23 04:05:28;;;;;;;0.10;0.10;;;;;;;4.79;100.00;92806.59;1977559;28;20104;-84
2023/12/23 04:06:29;;;;;;;0.20;0.20;;;;;;;4.84;100.00;92800.91;1975399;28;20025;-81
2023/12/23 04:07:30;;;;;;;0.20;0.20;;;;;;;5.07;100.00;92797.72;1989767;28;20108;-85
2023/12/23 04:08:31;;;;;;;0.20;0.20;;;;;;;4.98;100.00;92802.72;1991863;28;20030;-86
2023/12/23 04:09:32;;;;;;;0.43;0.20;;;;;;;5.03;100.00;92795.09;1993971;28;20034;-87
2023/12/23 04:10:33;;;;;;;0.32;0.30;;;;;;;5.15;100.00;92795.81;1992742;28;20029;-86
2023/12/23 04:11:37;;;;;;;0.20;0.20;;;;;;;4.97;100.00;92796.66;2002655;28;20120;-87
2023/12/23 04:12:38;;;;;;;0.20;0.20;;;;;;;4.98;100.00;92774.34;2034685;28;20043;-84
2023/12/23 04:13:38;;;;;;;0.22;0.22;;;;;;;5.00;100.00;92781.88;2053357;28;20028;-83
2023/12/23 04:14:40;;;;;;;0.20;0.20;;;;;;;4.91;100.00;92784.94;2039196;28;20557;-84
2023/12/23 04:15:41;;;;;;;0.22;0.22;;;;;;;4.85;100.00;92785.75;2025642;28;20057;-84
2023/12/23 04:16:42;;;;;;;0.20;0.20;;;;;;;4.89;100.00;92776.66;2034781;28;20144;-86
2023/12/23 04:17:43;;;;;;;0.63;0.22;;;;;;;5.04;100.00;92779.97;2050103;28;20040;-86
2023/12/23 04:18:44;;;;;;;0.20;0.20;;;;;;;5.02;100.00;92783.00;2056428;28;20435;-86
2023/12/23 04:19:45;;;;;;;0.20;0.20;;;;;;;5.00;100.00;92777.34;2066514;28;20052;-85
2023/12/23 04:20:46;;;;;;;0.43;0.20;;;;;;;4.95;100.00;92774.34;2078970;28;20030;-87
2023/12/23 04:21:47;;;;;;;0.20;0.20;;;;;;;4.99;100.00;92786.41;2086838;28;20119;-88
2023/12/23 04:22:48;;;;;;;0.50;0.30;;;;;;;5.13;100.00;92782.19;2089890;28;20521;-85
2023/12/23 04:23:49;;;;;;;0.20;0.20;;;;;;;4.98;100.00;92781.53;2089321;28;20033;-86
2023/12/23 04:24:50;;;;;;;0.20;0.20;;;;;;;4.85;100.00;92778.56;2086518;28;20041;-85
2023/12/23 04:25:51;;;;;;;0.20;0.20;;;;;;;4.88;100.00;92791.03;2089963;28;21691;-90
2023/12/23 04:26:55;;;;;;;0.30;0.20;;;;;;;4.87;100.00;92778.91;2089202;28;20032;-86
2023/12/23 04:27:56;;;;;;;0.20;0.20;;;;;;;4.84;100.00;92781.63;2081788;28;20029;-87
2023/12/23 04:28:57;;;;;;;0.20;0.20;;;;;;;4.87;100.00;92788.75;2089496;28;20036;-85
2023/12/23 04:29:58;;;;;;;0.20;0.20;;;;;;;4.85;100.00;92788.41;2090058;28;20549;-88
2023/12/23 04:30:59;;;;;;;0.13;0.13;;;;;;;4.92;100.00;92781.19;2088245;28;20029;-90
2023/12/23 04:32:00;;;;;;;0.20;0.20;;;;;;;4.98;100.00;92778.88;2097743;28;20035;-87
2023/12/23 04:33:01;;;;;;;0.20;0.20;;;;;;;4.78;100.00;92766.13;2087941;28;20032;-84
2023/12/23 04:34:02;;;;;;;0.30;0.20;;;;;;;4.83;100.00;92767.63;2089013;28;20027;-88
2023/12/23 04:35:03;;;;;;;0.20;0.20;;;;;;;4.80;100.00;92765.75;2101477;28;20107;-90
2023/12/23 04:36:05;;;;;;;0.10;0.10;;;;;;;5.08;100.00;92754.19;2096491;28;20027;-88
2023/12/23 04:37:06;;;;;;;0.20;0.20;;;;;;;5.00;100.00;92748.22;2089749;28;20466;-89
2023/12/23 04:38:07;;;;;;;0.20;0.20;;;;;;;5.03;100.00;92752.72;2098175;28;20031;-85
2023/12/23 04:39:08;;;;;;;0.10;0.10;;;;;;;4.92;100.00;92740.72;2089048;28;20470;-88
2023/12/23 04:40:09;;;;;;;0.90;0.20;;;;;;;4.89;100.00;92744.13;2077842;28;20041;-85
2023/12/23 04:41:10;;;;;;;0.15;0.15;;;;;;;4.88;100.00;92747.94;2096776;28;20029;-86
2023/12/23 04:42:11;;;;;;;0.32;0.20;;;;;;;4.92;100.00;92760.00;2097737;28;20021;-85
2023/12/23 04:43:12;;;;;;;0.10;0.10;;;;;;;5.10;100.00;92759.13;2094634;28;20020;-87
2023/12/23 04:44:14;;;;;;;0.20;0.20;;;;;;;5.11;100.00;92757.97;2089350;28;20021;-87
2023/12/23 04:45:15;;;;;;;0.43;0.20;;;;;;;4.99;100.00;92748.59;2088787;28;20103;-85
2023/12/23 04:46:16;;;;;;;0.20;0.20;;;;;;;4.91;100.00;92755.06;2089492;28;20473;-86
2023/12/23 04:47:17;;;;;;;0.17;0.17;;;;;;;4.99;100.00;92756.53;2089225;28;20053;-87
2023/12/23 04:48:18;;;;;;;0.20;0.20;;;;;;;4.92;100.00;92746.00;2088693;28;20029;-85
2023/12/23 04:49:19;;;;;;;0.20;0.20;;;;;;;4.88;100.00;92758.53;2088871;28;20497;-87
2023/12/23 04:50:20;;;;;;;0.20;0.20;;;;;;;4.87;100.00;92746.41;2095171;28;20028;-87
2023/12/23 04:51:21;;;;;;;0.20;0.20;;;;;;;4.99;100.00;92741.41;2089142;28;20033;-90
2023/12/23 04:52:22;;;;;;;0.20;0.20;;;;;;;4.98;100.00;92741.78;2080889;28;20021;-87